Terminal Aerodrome Forecast
Issued by NWS

Home | Current Version | Previous Version | Text Only | Print | Product List | Glossary On
Versions: 1 2 3 4 5 6 7 8 9 10 11 12 13 14 15 16 17 18 19 20 21 22 23 24 25 26 27 28 29 30 31 32 33 34 35 36 37 38 39 40
000
FTAK31 PANC 071740
TAFACD
TAF
PACD 071740Z 0718/0818 36009KT P6SM BKN040
      TEMPO 0720/0724 02015KT P6SM BKN025
     FM080000 01015KT P6SM BKN025
     FM081200 02015KT 6SM -SHSN BKN015 BKN025=

USA.gov is the U.S. government's official web portal to all federal, state and local government web resources and services.